createdAt,value
2022-09-21T00:01:03.622Z,6.07
2022-09-21T00:03:36.513Z,6.16
2022-09-21T00:06:10.654Z,6.22
2022-09-21T00:08:44.762Z,6.24
2022-09-21T00:11:20.178Z,6.28
2022-09-21T00:13:54.528Z,6.09
2022-09-21T00:16:27.802Z,6.15
2022-09-21T00:19:00.513Z,6.24
2022-09-21T00:21:33.645Z,6.29
2022-09-21T00:24:07.583Z,6.21
2022-09-21T00:26:39.875Z,6.29
2022-09-21T00:29:13.233Z,6.29
2022-09-21T00:31:45.640Z,6.31
2022-09-21T00:34:18.070Z,6.29
2022-09-21T00:36:50.661Z,6.26
2022-09-21T00:39:23.609Z,6.14
2022-09-21T00:41:55.989Z,6.19
2022-09-21T00:44:30.491Z,6.25
2022-09-21T00:47:08.068Z,6.40
2022-09-21T00:49:42.381Z,6.36
2022-09-21T00:52:18.495Z,6.39
2022-09-21T00:54:54.853Z,6.26
2022-09-21T00:57:30.692Z,6.44
2022-09-21T01:00:08.127Z,6.42
2022-09-21T01:02:40.987Z,6.43
2022-09-21T01:05:13.313Z,6.52
2022-09-21T01:07:47.866Z,6.53
2022-09-21T01:10:21.457Z,6.57
2022-09-21T01:13:05.237Z,6.44
2022-09-21T01:15:44.998Z,6.45
2022-09-21T01:18:20.233Z,6.48
2022-09-21T01:21:18.107Z,6.44
2022-09-21T01:24:18.458Z,6.51
2022-09-21T01:27:16.214Z,6.49
2022-09-21T01:29:52.615Z,6.16
2022-09-21T01:32:29.966Z,6.23
2022-09-21T01:35:06.434Z,6.36
2022-09-21T01:37:41.975Z,6.35
2022-09-21T01:40:21.010Z,6.31
2022-09-21T01:42:55.378Z,6.42
2022-09-21T01:45:32.078Z,6.42
2022-09-21T01:48:04.964Z,6.31
2022-09-21T01:50:41.641Z,6.30
2022-09-21T01:53:21.221Z,6.37
2022-09-21T01:55:57.662Z,6.34
2022-09-21T01:58:33.347Z,6.22
2022-09-21T02:01:11.627Z,6.21
2022-09-21T02:03:49.606Z,6.28
2022-09-21T02:06:24.641Z,6.28
2022-09-21T02:08:57.430Z,6.30
2022-09-21T02:11:29.749Z,6.31
2022-09-21T02:14:02.634Z,6.28
2022-09-21T02:16:38.994Z,6.18
2022-09-21T02:19:17.085Z,6.29
2022-09-21T02:21:57.285Z,6.31
2022-09-21T02:24:38.214Z,6.31
2022-09-21T02:27:21.909Z,6.22
2022-09-21T02:30:02.949Z,6.15
2022-09-21T02:32:46.238Z,6.15
2022-09-21T02:35:30.818Z,6.12
2022-09-21T02:38:10.734Z,6.15
2022-09-21T02:40:50.989Z,6.05
2022-09-21T02:43:27.622Z,5.86
2022-09-21T02:46:05.524Z,5.83
2022-09-21T02:48:44.160Z,5.89
2022-09-21T02:51:21.564Z,5.94
2022-09-21T02:53:55.213Z,5.89
2022-09-21T02:56:30.214Z,5.96
2022-09-21T02:59:05.470Z,5.89
2022-09-21T03:01:40.071Z,5.94
2022-09-21T03:04:13.099Z,5.92
2022-09-21T03:06:45.450Z,5.84
2022-09-21T03:09:17.958Z,5.81
2022-09-21T03:11:50.307Z,5.81
2022-09-21T03:14:22.614Z,5.78
2022-09-21T03:16:54.901Z,5.83
2022-09-21T03:19:28.635Z,5.71
2022-09-21T03:22:00.919Z,5.69
2022-09-21T03:24:48.100Z,5.70
2022-09-21T03:27:21.542Z,5.73
2022-09-21T03:29:53.843Z,5.63
2022-09-21T03:32:26.191Z,5.57
2022-09-21T03:34:59.150Z,5.48
2022-09-21T03:37:31.439Z,5.33
2022-09-21T03:40:04.611Z,5.18
2022-09-21T03:42:36.957Z,5.27
2022-09-21T03:45:11.365Z,5.34
2022-09-21T03:47:43.688Z,5.32
2022-09-21T03:50:16.929Z,5.24
2022-09-21T03:52:49.231Z,5.26
2022-09-21T03:55:21.923Z,5.24
2022-09-21T03:57:54.211Z,5.27
2022-09-21T04:00:26.955Z,5.13
2022-09-21T04:02:59.486Z,5.26
2022-09-21T04:05:32.474Z,5.26
2022-09-21T04:08:04.830Z,5.15
2022-09-21T04:10:41.450Z,4.96
2022-09-21T04:13:13.786Z,5.10
2022-09-21T04:15:46.088Z,5.06
2022-09-21T04:18:19.480Z,4.99
2022-09-21T04:20:52.407Z,4.90
2022-09-21T04:23:24.706Z,4.90
2022-09-21T04:25:57.355Z,4.96
2022-09-21T04:28:30.567Z,4.80
2022-09-21T04:31:03.336Z,4.87
2022-09-21T04:33:35.991Z,4.78
2022-09-21T04:36:08.954Z,4.91
2022-09-21T04:38:41.394Z,4.97
2022-09-21T04:41:14.112Z,4.86
2022-09-21T04:43:47.927Z,4.84
2022-09-21T04:46:20.740Z,4.90
2022-09-21T04:48:53.167Z,4.90
2022-09-21T04:51:26.199Z,4.91
2022-09-21T04:53:58.605Z,4.97
2022-09-21T04:56:30.931Z,5.02
2022-09-21T04:59:03.497Z,5.06
2022-09-21T05:01:35.846Z,5.01
2022-09-21T05:04:08.147Z,5.11
2022-09-21T05:06:41.184Z,4.97
2022-09-21T05:09:31.558Z,4.98
2022-09-21T05:12:03.962Z,5.12
2022-09-21T05:14:36.769Z,5.07
2022-09-21T05:17:09.562Z,5.13
2022-09-21T05:19:41.870Z,5.16
2022-09-21T05:22:15.070Z,5.24
2022-09-21T05:24:47.628Z,5.41
2022-09-21T05:27:19.947Z,5.49
2022-09-21T05:29:52.732Z,5.57
2022-09-21T05:32:33.645Z,5.57
2022-09-21T05:35:14.323Z,5.63
2022-09-21T05:37:53.573Z,5.70
2022-09-21T05:40:26.774Z,5.82
2022-09-21T05:42:59.632Z,5.93
2022-09-21T05:45:32.783Z,5.90
2022-09-21T05:48:13.550Z,5.97
2022-09-21T05:50:58.874Z,6.04
2022-09-21T05:53:48.232Z,6.21
2022-09-21T05:56:34.241Z,6.38
2022-09-21T05:59:21.509Z,6.52
2022-09-21T06:02:02.264Z,6.62
2022-09-21T06:04:35.126Z,6.70
2022-09-21T06:07:07.382Z,6.83
2022-09-21T06:09:43.204Z,6.91
2022-09-21T06:12:15.778Z,7.11
2022-09-21T06:14:48.119Z,7.18
2022-09-21T06:17:20.370Z,7.33
2022-09-21T06:19:52.753Z,7.46
2022-09-21T06:22:25.132Z,7.59
2022-09-21T06:24:58.089Z,7.73
2022-09-21T06:27:30.551Z,7.87
2022-09-21T06:30:03.077Z,7.92
2022-09-21T06:32:35.996Z,8.03
2022-09-21T06:35:09.094Z,8.11
2022-09-21T06:37:41.941Z,8.11
2022-09-21T06:40:14.972Z,8.27
2022-09-21T06:42:47.298Z,8.18
2022-09-21T06:45:19.623Z,8.43
2022-09-21T06:47:51.954Z,8.51
2022-09-21T06:50:24.429Z,8.60
2022-09-21T06:52:59.535Z,8.51
2022-09-21T06:55:32.647Z,8.68
2022-09-21T06:58:05.033Z,8.90
2022-09-21T07:00:37.405Z,9.02
2022-09-21T07:03:10.766Z,9.22
2022-09-21T07:05:44.903Z,9.39
2022-09-21T07:11:11.059Z,9.53
2022-09-21T07:13:43.366Z,9.74
2022-09-21T07:16:16.095Z,9.87
2022-09-21T07:18:48.610Z,10.12
2022-09-21T07:21:21.194Z,10.23
2022-09-21T07:23:53.591Z,10.40
2022-09-21T07:26:26.606Z,10.38
2022-09-21T07:28:58.907Z,10.20
2022-09-21T07:31:31.268Z,10.34
2022-09-21T07:34:04.015Z,10.49
2022-09-21T07:36:36.555Z,10.52
2022-09-21T07:39:09.472Z,10.57
2022-09-21T07:41:42.462Z,10.53
2022-09-21T07:44:14.824Z,10.54
2022-09-21T07:46:48.389Z,10.74
2022-09-21T07:49:20.761Z,10.66
2022-09-21T07:51:53.659Z,10.69
2022-09-21T07:54:26.002Z,10.76
2022-09-21T07:57:16.972Z,10.93
2022-09-21T07:59:49.300Z,10.99
2022-09-21T08:02:22.155Z,10.87
2022-09-21T08:04:54.715Z,10.95
2022-09-21T08:07:27.687Z,10.67
2022-09-21T08:10:00.032Z,10.95
2022-09-21T08:12:33.052Z,11.17
2022-09-21T08:15:07.172Z,11.20
2022-09-21T08:17:39.508Z,11.32
2022-09-21T08:20:13.137Z,11.22
2022-09-21T08:22:45.670Z,11.38
2022-09-21T08:25:17.956Z,11.56
2022-09-21T08:27:50.987Z,11.74
2022-09-21T08:30:23.371Z,11.84
2022-09-21T08:32:55.752Z,11.91
2022-09-21T08:35:28.062Z,12.01
2022-09-21T08:38:00.436Z,12.14
2022-09-21T08:40:33.583Z,12.06
2022-09-21T08:43:11.423Z,12.09
2022-09-21T08:45:46.016Z,12.08
2022-09-21T08:48:26.921Z,12.13
2022-09-21T08:51:07.386Z,12.10
2022-09-21T08:53:43.525Z,12.10
2022-09-21T08:56:16.549Z,12.09
2022-09-21T08:58:49.517Z,12.19
2022-09-21T09:01:48.802Z,12.31
2022-09-21T09:04:39.045Z,12.54
2022-09-21T09:07:28.477Z,12.42
2022-09-21T09:10:14.633Z,12.53
2022-09-21T09:12:58.321Z,12.42
2022-09-21T09:15:51.355Z,12.68
2022-09-21T09:18:32.357Z,12.69
2022-09-21T09:21:11.043Z,12.77
2022-09-21T09:23:48.207Z,12.88
2022-09-21T09:26:27.607Z,13.01
2022-09-21T09:29:02.611Z,13.21
2022-09-21T09:31:38.065Z,13.18
2022-09-21T09:34:15.862Z,13.19
2022-09-21T09:37:00.129Z,13.16
2022-09-21T09:39:32.775Z,13.21
2022-09-21T09:42:22.648Z,13.10
2022-09-21T09:45:23.423Z,12.98
2022-09-21T09:48:09.965Z,12.68
2022-09-21T09:50:42.914Z,12.84
2022-09-21T09:53:18.709Z,12.64
2022-09-21T09:55:53.711Z,12.48
2022-09-21T09:58:39.055Z,12.51
2022-09-21T10:01:41.996Z,12.80
2022-09-21T10:04:16.805Z,12.95
2022-09-21T10:06:49.223Z,13.08
2022-09-21T10:09:27.596Z,13.25
2022-09-21T10:12:06.863Z,13.33
2022-09-21T10:14:49.372Z,13.52
2022-09-21T10:17:24.104Z,13.20
2022-09-21T10:20:00.639Z,13.43
2022-09-21T10:22:33.007Z,13.35
2022-09-21T10:25:07.816Z,13.22
2022-09-21T10:27:46.201Z,13.24
2022-09-21T10:30:37.898Z,13.06
2022-09-21T10:33:19.787Z,13.06
2022-09-21T10:35:53.207Z,13.08
2022-09-21T10:38:27.490Z,13.21
2022-09-21T10:40:59.834Z,13.51
2022-09-21T10:43:43.624Z,13.68
2022-09-21T10:46:16.457Z,13.88
2022-09-21T10:48:49.695Z,13.72
2022-09-21T10:51:28.433Z,13.95
2022-09-21T10:54:00.988Z,13.90
2022-09-21T10:56:33.302Z,13.80
2022-09-21T10:59:20.658Z,13.68
2022-09-21T11:01:54.758Z,13.57
2022-09-21T11:04:36.175Z,13.34
2022-09-21T11:07:17.694Z,13.31
2022-09-21T11:09:56.586Z,13.32
2022-09-21T11:12:37.885Z,13.43
2022-09-21T11:15:20.162Z,13.45
2022-09-21T11:18:00.290Z,13.52
2022-09-21T11:20:41.791Z,13.74
2022-09-21T11:23:26.586Z,13.81
2022-09-21T11:26:09.994Z,13.98
2022-09-21T11:28:49.444Z,13.87
2022-09-21T11:31:43.795Z,13.79
2022-09-21T11:34:43.433Z,13.99
2022-09-21T11:37:21.734Z,14.03
2022-09-21T11:40:06.738Z,13.87
2022-09-21T11:42:54.928Z,13.91
2022-09-21T11:45:58.067Z,13.71
2022-09-21T11:48:42.441Z,13.82
2022-09-21T11:51:36.883Z,13.58
2022-09-21T11:54:38.403Z,13.60
2022-09-21T11:57:19.520Z,13.63
2022-09-21T12:00:07.138Z,13.85
2022-09-21T12:03:02.299Z,13.61
2022-09-21T12:05:40.770Z,13.46
2022-09-21T12:08:33.317Z,13.32
2022-09-21T12:11:14.378Z,13.10
2022-09-21T12:13:55.047Z,13.12
2022-09-21T12:16:35.737Z,13.34
2022-09-21T12:19:18.629Z,13.53
2022-09-21T12:21:56.330Z,13.79
2022-09-21T12:24:32.985Z,13.94
2022-09-21T12:27:12.482Z,14.13
2022-09-21T12:29:49.266Z,14.25
2022-09-21T12:32:26.870Z,14.30
2022-09-21T12:35:02.670Z,13.95
2022-09-21T12:37:40.197Z,13.67
2022-09-21T12:40:22.406Z,13.93
2022-09-21T12:43:03.051Z,14.03
2022-09-21T12:45:39.558Z,13.89
2022-09-21T12:48:22.550Z,14.10
2022-09-21T12:50:57.332Z,14.29
2022-09-21T12:53:32.929Z,14.09
2022-09-21T12:56:09.962Z,13.96
2022-09-21T12:59:06.488Z,14.08
2022-09-21T13:01:45.466Z,14.16
2022-09-21T13:04:31.249Z,14.21
2022-09-21T13:07:45.552Z,13.69
2022-09-21T13:10:30.944Z,13.76
2022-09-21T13:13:07.361Z,13.63
2022-09-21T13:15:44.458Z,13.65
2022-09-21T13:18:21.443Z,13.80
2022-09-21T13:20:54.933Z,13.74
2022-09-21T13:23:33.291Z,13.74
2022-09-21T13:26:08.171Z,13.75
2022-09-21T13:28:59.778Z,13.61
2022-09-21T13:31:58.578Z,13.43
2022-09-21T13:34:33.840Z,13.28
2022-09-21T13:37:33.194Z,13.56
2022-09-21T13:40:48.838Z,13.41
2022-09-21T13:43:23.567Z,13.46
2022-09-21T13:45:57.563Z,13.56
2022-09-21T13:48:30.719Z,13.56
2022-09-21T13:51:08.606Z,13.58
2022-09-21T13:53:41.540Z,13.64
2022-09-21T13:56:19.591Z,13.77
2022-09-21T13:58:54.643Z,14.03
2022-09-21T14:01:48.945Z,14.18
2022-09-21T14:04:26.437Z,14.08
2022-09-21T14:07:03.546Z,14.09
2022-09-21T14:09:41.687Z,14.05
2022-09-21T14:12:20.861Z,14.14
2022-09-21T14:15:28.339Z,14.01
2022-09-21T14:18:46.237Z,14.08
2022-09-21T14:21:20.206Z,14.08
2022-09-21T14:24:29.281Z,13.91
2022-09-21T14:27:11.070Z,13.76
2022-09-21T14:29:48.088Z,13.85
2022-09-21T14:32:23.566Z,13.75
2022-09-21T14:35:07.419Z,13.60
2022-09-21T14:37:44.494Z,13.55
2022-09-21T14:40:20.660Z,13.60
2022-09-21T14:42:54.878Z,13.54
2022-09-21T14:45:45.017Z,13.52
2022-09-21T14:48:29.797Z,13.43
2022-09-21T14:51:10.310Z,13.24
2022-09-21T14:54:25.519Z,13.23
2022-09-21T14:57:29.775Z,13.06
2022-09-21T15:00:14.276Z,13.03
2022-09-21T15:02:49.381Z,13.08
2022-09-21T15:05:28.776Z,13.09
2022-09-21T15:08:35.911Z,13.09
2022-09-21T15:11:15.623Z,13.09
2022-09-21T15:13:58.607Z,13.08
2022-09-21T15:16:38.701Z,13.03
2022-09-21T15:19:15.487Z,12.91
2022-09-21T15:21:50.058Z,12.79
2022-09-21T15:24:27.118Z,12.77
2022-09-21T15:27:09.468Z,12.77
2022-09-21T15:29:46.683Z,12.62
2022-09-21T15:32:30.267Z,12.59
2022-09-21T15:35:05.995Z,12.65
2022-09-21T15:37:38.982Z,12.54
2022-09-21T15:40:18.062Z,12.50
2022-09-21T15:43:03.598Z,12.39
2022-09-21T15:45:47.481Z,12.20
2022-09-21T15:48:20.466Z,12.17
2022-09-21T15:50:57.247Z,12.17
2022-09-21T15:53:35.639Z,12.15
2022-09-21T15:56:17.859Z,11.89
2022-09-21T15:58:52.609Z,11.99
2022-09-21T16:01:25.185Z,11.95
2022-09-21T16:04:04.944Z,11.99
2022-09-21T16:06:40.831Z,11.80
2022-09-21T16:09:40.675Z,11.87
2022-09-21T16:12:38.897Z,11.90
2022-09-21T16:15:18.841Z,11.78
2022-09-21T16:17:57.727Z,11.75
2022-09-21T16:20:42.544Z,11.62
2022-09-21T16:23:17.219Z,11.55
2022-09-21T16:25:54.456Z,11.52
2022-09-21T16:28:35.976Z,11.58
2022-09-21T16:31:32.593Z,11.50
2022-09-21T16:34:21.099Z,11.48
2022-09-21T16:36:54.121Z,11.40
2022-09-21T16:39:28.386Z,11.43
2022-09-21T16:42:03.959Z,11.39
2022-09-21T16:44:40.309Z,11.31
2022-09-21T16:47:15.288Z,11.22
2022-09-21T16:49:47.608Z,11.27
2022-09-21T16:52:20.832Z,11.04
2022-09-21T16:54:54.154Z,11.06
2022-09-21T16:57:26.677Z,11.01
2022-09-21T16:59:58.994Z,11.00
2022-09-21T17:02:31.990Z,11.01
2022-09-21T17:05:04.844Z,10.70
2022-09-21T17:07:37.202Z,10.55
2022-09-21T17:10:14.595Z,10.48
2022-09-21T17:12:47.132Z,10.37
2022-09-21T17:15:20.498Z,10.09
2022-09-21T17:17:53.493Z,10.03
2022-09-21T17:20:32.666Z,10.01
2022-09-21T17:23:06.538Z,9.95
2022-09-21T17:25:38.865Z,9.74
2022-09-21T17:28:14.346Z,9.58
2022-09-21T17:30:48.064Z,9.47
2022-09-21T17:33:22.387Z,9.52
2022-09-21T17:35:56.099Z,9.57
2022-09-21T17:38:34.709Z,9.53
2022-09-21T17:41:17.804Z,9.48
2022-09-21T17:43:57.914Z,9.48
2022-09-21T17:46:40.370Z,9.50
2022-09-21T17:49:13.886Z,9.53
2022-09-21T17:52:04.950Z,9.51
2022-09-21T17:54:39.154Z,9.46
2022-09-21T17:57:26.271Z,9.49
2022-09-21T18:00:04.221Z,9.33
2022-09-21T18:02:38.005Z,9.36
2022-09-21T18:05:22.131Z,9.32
2022-09-21T18:07:55.208Z,9.33
2022-09-21T18:10:29.730Z,9.28
2022-09-21T18:13:23.726Z,9.30
2022-09-21T18:16:19.135Z,9.24
2022-09-21T18:19:01.383Z,9.23
2022-09-21T18:21:40.035Z,9.14
2022-09-21T18:24:21.178Z,9.06
2022-09-21T18:26:54.571Z,9.15
2022-09-21T18:29:46.548Z,9.11
2022-09-21T18:32:43.569Z,9.10
2022-09-21T18:35:27.528Z,9.13
2022-09-21T18:38:12.594Z,9.16
2022-09-21T18:41:03.519Z,9.19
2022-09-21T18:43:49.347Z,9.15
2022-09-21T18:46:28.478Z,9.14
2022-09-21T18:49:05.695Z,9.05
2022-09-21T18:51:46.250Z,9.02
2022-09-21T18:54:22.397Z,9.04
2022-09-21T18:56:55.420Z,9.06
2022-09-21T18:59:31.924Z,8.91
2022-09-21T19:02:14.590Z,8.90
2022-09-21T19:04:48.589Z,8.82
2022-09-21T19:07:29.477Z,8.85
2022-09-21T19:10:15.135Z,8.85
2022-09-21T19:13:03.219Z,8.90
2022-09-21T19:15:59.877Z,8.93
2022-09-21T19:18:42.672Z,8.91
2022-09-21T19:21:26.114Z,8.91
2022-09-21T19:24:09.468Z,8.90
2022-09-21T19:27:03.130Z,8.93
2022-09-21T19:29:47.970Z,8.80
2022-09-21T19:32:31.768Z,8.80
2022-09-21T19:35:24.426Z,8.88
2022-09-21T19:37:58.175Z,8.91
2022-09-21T19:40:32.970Z,8.86
2022-09-21T19:43:25.592Z,8.82
2022-09-21T19:46:10.851Z,8.87
2022-09-21T19:48:45.626Z,8.93
2022-09-21T19:51:19.950Z,8.86
2022-09-21T19:54:13.648Z,8.88
2022-09-21T19:57:06.209Z,9.08
2022-09-21T19:59:42.730Z,9.40
2022-09-21T20:02:19.249Z,9.56
2022-09-21T20:04:57.546Z,9.61
2022-09-21T20:07:41.900Z,9.66
2022-09-21T20:10:41.447Z,9.73
2022-09-21T20:13:21.117Z,9.74
2022-09-21T20:16:02.998Z,9.70
2022-09-21T20:18:41.886Z,9.67
2022-09-21T20:21:18.849Z,9.68
2022-09-21T20:23:59.204Z,9.75
2022-09-21T20:26:32.009Z,9.75
2022-09-21T20:29:04.637Z,9.78
2022-09-21T20:31:37.631Z,9.76
2022-09-21T20:34:10.526Z,9.73
2022-09-21T20:36:42.785Z,9.75
2022-09-21T20:39:15.103Z,9.79
2022-09-21T20:41:48.067Z,9.83
2022-09-21T20:44:21.288Z,9.83
2022-09-21T20:46:54.250Z,9.84
2022-09-21T20:49:26.534Z,9.78
2022-09-21T20:52:00.463Z,9.67
2022-09-21T20:54:32.775Z,9.69
2022-09-21T20:57:05.244Z,9.71
2022-09-21T20:59:37.634Z,9.68
2022-09-21T21:02:11.854Z,9.65
2022-09-21T21:04:44.182Z,9.64
2022-09-21T21:07:16.481Z,9.63
2022-09-21T21:09:48.822Z,9.66
2022-09-21T21:12:21.187Z,9.63
2022-09-21T21:14:53.900Z,9.60
2022-09-21T21:17:26.840Z,9.55
2022-09-21T21:19:59.089Z,9.53
2022-09-21T21:22:31.618Z,9.48
2022-09-21T21:25:04.797Z,9.48
2022-09-21T21:27:37.211Z,9.48
2022-09-21T21:30:10.615Z,9.48
2022-09-21T21:32:43.542Z,9.50
2022-09-21T21:35:15.934Z,9.45
2022-09-21T21:37:48.224Z,9.46
2022-09-21T21:40:20.606Z,9.42
2022-09-21T21:42:55.413Z,9.35
2022-09-21T21:45:27.677Z,9.30
2022-09-21T21:48:01.725Z,9.24
2022-09-21T21:50:35.191Z,9.27
2022-09-21T21:53:07.550Z,9.27
2022-09-21T21:55:39.910Z,9.24
2022-09-21T21:58:12.233Z,9.25
2022-09-21T22:00:45.173Z,9.26
2022-09-21T22:03:18.183Z,9.25
2022-09-21T22:05:55.386Z,9.28
2022-09-21T22:08:27.773Z,9.25
2022-09-21T22:11:00.505Z,9.26
2022-09-21T22:13:36.052Z,9.26
2022-09-21T22:16:11.235Z,9.26
2022-09-21T22:18:45.588Z,9.20
2022-09-21T22:21:20.918Z,9.18
2022-09-21T22:23:53.963Z,9.19
2022-09-21T22:26:28.075Z,9.23
2022-09-21T22:29:03.422Z,9.21
2022-09-21T22:31:38.299Z,9.15
2022-09-21T22:34:12.247Z,9.13
2022-09-21T22:36:44.779Z,9.13
2022-09-21T22:39:17.161Z,9.16
2022-09-21T22:41:49.851Z,9.06
2022-09-21T22:44:22.209Z,9.00
2022-09-21T22:46:54.518Z,9.07
2022-09-21T22:49:27.482Z,9.08
2022-09-21T22:51:59.814Z,9.04
2022-09-21T22:54:32.146Z,9.03
2022-09-21T22:57:04.801Z,9.08
2022-09-21T22:59:37.166Z,9.08
2022-09-21T23:02:09.756Z,8.99
2022-09-21T23:04:43.378Z,9.00
2022-09-21T23:07:17.015Z,9.05
2022-09-21T23:09:50.681Z,9.01
2022-09-21T23:12:23.006Z,9.03
2022-09-21T23:14:55.325Z,9.02
2022-09-21T23:17:28.295Z,8.96
2022-09-21T23:20:02.047Z,8.96
2022-09-21T23:22:34.346Z,8.97
2022-09-21T23:25:07.386Z,9.00
2022-09-21T23:27:39.659Z,9.06
2022-09-21T23:30:12.285Z,9.04
2022-09-21T23:32:44.626Z,9.02
2022-09-21T23:35:17.636Z,9.06
2022-09-21T23:37:50.100Z,9.07
2022-09-21T23:40:22.531Z,8.94
2022-09-21T23:42:54.887Z,8.80
2022-09-21T23:45:27.182Z,8.78
2022-09-21T23:47:59.486Z,8.80
2022-09-21T23:50:32.492Z,8.77
2022-09-21T23:53:04.789Z,8.64
2022-09-21T23:55:37.106Z,8.71
2022-09-21T23:58:09.431Z,8.78
